Ashville, New York
Current Conditions -  °F | °C
As of 7:15 PM on Thursday 18 Dec 2014 (Local Time) from KJHW Reporting Station
Overcast Overcast  
Wind Chill: 16°   Ceiling: 600
Heat Index: 27°   Visibility: 7mi
Dew Point: 25°   Wind: 12mph
Humidity: 93%   Direction: 280°W
Pressure: 30.06"   Gusts: NA
Location:  42.1°N, 79.38°W
Report Text: KJHW 190015Z 28010KT 7SM OVC006 M03/M04 A3006 RMK AO1
Loading
Personal Weather Stations






























Interactive Weather Map New forecast layout! Learn more

10-Day Weather Forecast

Advertisements
Track Severe Weather on mobile